sensor_id;sensor_type;location;lat;lon;timestamp;pressure;altitude;pressure_sealevel;temperature
71205;BMP180;58935;54.498;18.544;2023-07-20T00:00:24;99896.00;;;13.50
71205;BMP180;58935;54.498;18.544;2023-07-20T00:02:50;99896.80;;;13.50
71205;BMP180;58935;54.498;18.544;2023-07-20T00:05:17;99890.80;;;13.50
71205;BMP180;58935;54.498;18.544;2023-07-20T00:07:43;99894.40;;;13.50
71205;BMP180;58935;54.498;18.544;2023-07-20T00:10:09;99888.60;;;13.50
71205;BMP180;58935;54.498;18.544;2023-07-20T00:12:35;99888.60;;;13.50
71205;BMP180;58935;54.498;18.544;2023-07-20T00:15:00;99886.00;;;13.50
71205;BMP180;58935;54.498;18.544;2023-07-20T00:17:26;99884.40;;;13.50
71205;BMP180;58935;54.498;18.544;2023-07-20T00:19:51;99889.00;;;13.50
71205;BMP180;58935;54.498;18.544;2023-07-20T00:22:16;99889.40;;;13.50
71205;BMP180;58935;54.498;18.544;2023-07-20T00:24:42;99886.00;;;13.50
71205;BMP180;58935;54.498;18.544;2023-07-20T00:27:07;99889.40;;;13.50
71205;BMP180;58935;54.498;18.544;2023-07-20T00:29:33;99885.80;;;13.50
71205;BMP180;58935;54.498;18.544;2023-07-20T00:31:58;99881.80;;;13.50
71205;BMP180;58935;54.498;18.544;2023-07-20T00:34:24;99887.60;;;13.50
71205;BMP180;58935;54.498;18.544;2023-07-20T00:36:49;99886.80;;;13.50
71205;BMP180;58935;54.498;18.544;2023-07-20T00:39:15;99889.40;;;13.50
71205;BMP180;58935;54.498;18.544;2023-07-20T00:41:40;99888.00;;;13.50
71205;BMP180;58935;54.498;18.544;2023-07-20T00:44:05;99883.00;;;13.56
71205;BMP180;58935;54.498;18.544;2023-07-20T00:46:32;99883.80;;;13.60
71205;BMP180;58935;54.498;18.544;2023-07-20T00:48:58;99885.80;;;13.60
71205;BMP180;58935;54.498;18.544;2023-07-20T00:51:25;99877.20;;;13.62
71205;BMP180;58935;54.498;18.544;2023-07-20T00:53:52;99878.20;;;13.70
71205;BMP180;58935;54.498;18.544;2023-07-20T00:56:19;99877.40;;;13.70
71205;BMP180;58935;54.498;18.544;2023-07-20T00:58:44;99875.20;;;13.70
71205;BMP180;58935;54.498;18.544;2023-07-20T01:01:10;99881.20;;;13.70
71205;BMP180;58935;54.498;18.544;2023-07-20T01:03:36;99881.00;;;13.72
71205;BMP180;58935;54.498;18.544;2023-07-20T01:06:35;99887.20;;;13.80
71205;BMP180;58935;54.498;18.544;2023-07-20T01:09:19;99889.20;;;13.80
71205;BMP180;58935;54.498;18.544;2023-07-20T01:12:05;99886.00;;;13.80
71205;BMP180;58935;54.498;18.544;2023-07-20T01:14:32;99893.00;;;13.80
71205;BMP180;58935;54.498;18.544;2023-07-20T01:16:58;99897.60;;;13.80
71205;BMP180;58935;54.498;18.544;2023-07-20T01:19:23;99895.40;;;13.80
71205;BMP180;58935;54.498;18.544;2023-07-20T01:22:02;99901.60;;;13.80
71205;BMP180;58935;54.498;18.544;2023-07-20T01:33:50;99904.40;;;13.80
71205;BMP180;58935;54.498;18.544;2023-07-20T01:36:18;99896.00;;;13.80
71205;BMP180;58935;54.498;18.544;2023-07-20T01:38:46;99893.20;;;13.80
71205;BMP180;58935;54.498;18.544;2023-07-20T01:41:12;99895.60;;;13.80
71205;BMP180;58935;54.498;18.544;2023-07-20T01:43:37;99895.20;;;13.80
71205;BMP180;58935;54.498;18.544;2023-07-20T01:46:03;99895.40;;;13.80
71205;BMP180;58935;54.498;18.544;2023-07-20T01:48:28;99897.20;;;13.80
71205;BMP180;58935;54.498;18.544;2023-07-20T01:50:53;99893.80;;;13.80
71205;BMP180;58935;54.498;18.544;2023-07-20T01:53:20;99894.80;;;13.80
71205;BMP180;58935;54.498;18.544;2023-07-20T01:55:46;99886.60;;;13.80
71205;BMP180;58935;54.498;18.544;2023-07-20T01:58:11;99891.80;;;13.80
71205;BMP180;58935;54.498;18.544;2023-07-20T02:00:37;99891.20;;;13.80
71205;BMP180;58935;54.498;18.544;2023-07-20T02:03:03;99890.20;;;13.80
71205;BMP180;58935;54.498;18.544;2023-07-20T02:05:28;99889.00;;;13.80
71205;BMP180;58935;54.498;18.544;2023-07-20T02:07:54;99891.20;;;13.80
71205;BMP180;58935;54.498;18.544;2023-07-20T02:10:19;99888.80;;;13.80
71205;BMP180;58935;54.498;18.544;2023-07-20T02:12:44;99891.40;;;13.80
71205;BMP180;58935;54.498;18.544;2023-07-20T02:15:10;99897.40;;;13.80
71205;BMP180;58935;54.498;18.544;2023-07-20T02:17:35;99890.60;;;13.76
71205;BMP180;58935;54.498;18.544;2023-07-20T02:20:01;99887.40;;;13.70
71205;BMP180;58935;54.498;18.544;2023-07-20T02:22:26;99888.00;;;13.70
71205;BMP180;58935;54.498;18.544;2023-07-20T02:24:51;99888.80;;;13.70
71205;BMP180;58935;54.498;18.544;2023-07-20T02:27:17;99883.20;;;13.70
71205;BMP180;58935;54.498;18.544;2023-07-20T02:29:42;99889.20;;;13.70
71205;BMP180;58935;54.498;18.544;2023-07-20T02:32:08;99882.80;;;13.70
71205;BMP180;58935;54.498;18.544;2023-07-20T02:34:36;99881.40;;;13.70
71205;BMP180;58935;54.498;18.544;2023-07-20T02:37:01;99883.00;;;13.70
71205;BMP180;58935;54.498;18.544;2023-07-20T02:39:28;99881.80;;;13.70
71205;BMP180;58935;54.498;18.544;2023-07-20T02:41:54;99882.40;;;13.70
71205;BMP180;58935;54.498;18.544;2023-07-20T02:44:19;99880.60;;;13.70
71205;BMP180;58935;54.498;18.544;2023-07-20T02:46:45;99879.20;;;13.68
71205;BMP180;58935;54.498;18.544;2023-07-20T02:49:10;99879.00;;;13.62
71205;BMP180;58935;54.498;18.544;2023-07-20T02:51:35;99881.60;;;13.66
71205;BMP180;58935;54.498;18.544;2023-07-20T02:54:01;99880.60;;;13.70
71205;BMP180;58935;54.498;18.544;2023-07-20T02:56:27;99880.80;;;13.70
71205;BMP180;58935;54.498;18.544;2023-07-20T02:58:52;99872.20;;;13.70
71205;BMP180;58935;54.498;18.544;2023-07-20T03:01:18;99871.20;;;13.70
71205;BMP180;58935;54.498;18.544;2023-07-20T03:03:43;99870.80;;;13.70
71205;BMP180;58935;54.498;18.544;2023-07-20T03:06:13;99871.00;;;13.74
71205;BMP180;58935;54.498;18.544;2023-07-20T03:08:40;99869.00;;;13.76
71205;BMP180;58935;54.498;18.544;2023-07-20T03:11:07;99870.80;;;13.80
71205;BMP180;58935;54.498;18.544;2023-07-20T03:13:33;99877.60;;;13.80
71205;BMP180;58935;54.498;18.544;2023-07-20T03:15:58;99879.60;;;13.80
71205;BMP180;58935;54.498;18.544;2023-07-20T03:18:23;99883.00;;;13.80
71205;BMP180;58935;54.498;18.544;2023-07-20T03:20:49;99880.20;;;13.90
71205;BMP180;58935;54.498;18.544;2023-07-20T03:23:14;99880.20;;;13.92
71205;BMP180;58935;54.498;18.544;2023-07-20T03:25:40;99883.00;;;14.00
71205;BMP180;58935;54.498;18.544;2023-07-20T03:28:06;99880.20;;;14.00
71205;BMP180;58935;54.498;18.544;2023-07-20T03:30:31;99875.00;;;14.10
71205;BMP180;58935;54.498;18.544;2023-07-20T03:32:56;99881.40;;;14.12
71205;BMP180;58935;54.498;18.544;2023-07-20T03:35:22;99883.20;;;14.20
71205;BMP180;58935;54.498;18.544;2023-07-20T03:37:48;99883.00;;;14.20
71205;BMP180;58935;54.498;18.544;2023-07-20T03:40:13;99887.00;;;14.20
71205;BMP180;58935;54.498;18.544;2023-07-20T03:42:40;99887.60;;;14.20
71205;BMP180;58935;54.498;18.544;2023-07-20T03:45:06;99886.80;;;14.20
71205;BMP180;58935;54.498;18.544;2023-07-20T03:47:31;99882.20;;;14.30
71205;BMP180;58935;54.498;18.544;2023-07-20T03:49:57;99882.00;;;14.32
71205;BMP180;58935;54.498;18.544;2023-07-20T03:52:23;99883.40;;;14.40
71205;BMP180;58935;54.498;18.544;2023-07-20T03:54:49;99884.80;;;14.50
71205;BMP180;58935;54.498;18.544;2023-07-20T03:57:16;99885.00;;;14.60
71205;BMP180;58935;54.498;18.544;2023-07-20T03:59:45;99891.20;;;14.60
71205;BMP180;58935;54.498;18.544;2023-07-20T04:02:11;99888.60;;;14.72
71205;BMP180;58935;54.498;18.544;2023-07-20T04:04:36;99893.80;;;14.90
71205;BMP180;58935;54.498;18.544;2023-07-20T04:07:02;99891.80;;;15.00
71205;BMP180;58935;54.498;18.544;2023-07-20T04:09:27;99892.00;;;15.10
71205;BMP180;58935;54.498;18.544;2023-07-20T04:11:52;99889.80;;;15.16
71205;BMP180;58935;54.498;18.544;2023-07-20T04:14:17;99892.00;;;15.22
71205;BMP180;58935;54.498;18.544;2023-07-20T04:16:43;99888.80;;;15.30
71205;BMP180;58935;54.498;18.544;2023-07-20T04:19:11;99889.60;;;15.40
71205;BMP180;58935;54.498;18.544;2023-07-20T04:21:40;99889.00;;;15.42
71205;BMP180;58935;54.498;18.544;2023-07-20T04:24:06;99891.60;;;15.50
71205;BMP180;58935;54.498;18.544;2023-07-20T04:26:31;99890.80;;;15.60
71205;BMP180;58935;54.498;18.544;2023-07-20T04:28:57;99896.00;;;15.60
71205;BMP180;58935;54.498;18.544;2023-07-20T04:31:25;99890.20;;;15.60
71205;BMP180;58935;54.498;18.544;2023-07-20T04:33:50;99892.80;;;15.60
71205;BMP180;58935;54.498;18.544;2023-07-20T04:36:16;99897.00;;;15.60
71205;BMP180;58935;54.498;18.544;2023-07-20T04:38:47;99897.80;;;15.60
71205;BMP180;58935;54.498;18.544;2023-07-20T04:41:13;99899.80;;;15.60
71205;BMP180;58935;54.498;18.544;2023-07-20T04:43:42;99894.60;;;15.58
71205;BMP180;58935;54.498;18.544;2023-07-20T04:46:12;99901.20;;;15.50
71205;BMP180;58935;54.498;18.544;2023-07-20T04:48:37;99905.20;;;15.50
71205;BMP180;58935;54.498;18.544;2023-07-20T04:51:03;99904.80;;;15.50
71205;BMP180;58935;54.498;18.544;2023-07-20T04:53:29;99904.40;;;15.50
71205;BMP180;58935;54.498;18.544;2023-07-20T04:55:56;99902.80;;;15.50
71205;BMP180;58935;54.498;18.544;2023-07-20T04:58:22;99911.40;;;15.50
71205;BMP180;58935;54.498;18.544;2023-07-20T05:00:51;99898.40;;;15.40
71205;BMP180;58935;54.498;18.544;2023-07-20T05:03:17;99903.40;;;15.40
71205;BMP180;58935;54.498;18.544;2023-07-20T05:05:43;99902.40;;;15.30
71205;BMP180;58935;54.498;18.544;2023-07-20T05:08:08;99903.20;;;15.30
71205;BMP180;58935;54.498;18.544;2023-07-20T05:10:34;99905.00;;;15.30
71205;BMP180;58935;54.498;18.544;2023-07-20T05:13:00;99907.60;;;15.30
71205;BMP180;58935;54.498;18.544;2023-07-20T05:15:25;99909.40;;;15.30
71205;BMP180;58935;54.498;18.544;2023-07-20T05:17:51;99905.20;;;15.30
71205;BMP180;58935;54.498;18.544;2023-07-20T05:20:16;99904.40;;;15.30
71205;BMP180;58935;54.498;18.544;2023-07-20T05:22:42;99899.60;;;15.32
71205;BMP180;58935;54.498;18.544;2023-07-20T05:25:10;99903.40;;;15.40
71205;BMP180;58935;54.498;18.544;2023-07-20T05:27:37;99905.80;;;15.42
71205;BMP180;58935;54.498;18.544;2023-07-20T05:30:04;99910.40;;;15.50
71205;BMP180;58935;54.498;18.544;2023-07-20T05:32:30;99910.00;;;15.50
71205;BMP180;58935;54.498;18.544;2023-07-20T05:34:56;99908.00;;;15.50
71205;BMP180;58935;54.498;18.544;2023-07-20T05:37:21;99912.00;;;15.50
71205;BMP180;58935;54.498;18.544;2023-07-20T05:39:47;99912.00;;;15.50
71205;BMP180;58935;54.498;18.544;2023-07-20T05:42:12;99908.00;;;15.48
71205;BMP180;58935;54.498;18.544;2023-07-20T05:44:39;99914.00;;;15.40
71205;BMP180;58935;54.498;18.544;2023-07-20T05:47:04;99914.80;;;15.46
71205;BMP180;58935;54.498;18.544;2023-07-20T05:49:30;99916.00;;;15.50
71205;BMP180;58935;54.498;18.544;2023-07-20T05:51:56;99917.20;;;15.60
71205;BMP180;58935;54.498;18.544;2023-07-20T05:54:21;99915.20;;;15.70
71205;BMP180;58935;54.498;18.544;2023-07-20T05:56:47;99919.00;;;15.70
71205;BMP180;58935;54.498;18.544;2023-07-20T05:59:13;99919.60;;;15.74
71205;BMP180;58935;54.498;18.544;2023-07-20T06:01:38;99915.00;;;15.80
71205;BMP180;58935;54.498;18.544;2023-07-20T06:04:04;99913.40;;;15.90
71205;BMP180;58935;54.498;18.544;2023-07-20T06:06:29;99914.20;;;16.00
71205;BMP180;58935;54.498;18.544;2023-07-20T06:08:54;99908.40;;;16.06
71205;BMP180;58935;54.498;18.544;2023-07-20T06:11:20;99909.40;;;16.02
71205;BMP180;58935;54.498;18.544;2023-07-20T06:17:26;99912.80;;;16.10
71205;BMP180;58935;54.498;18.544;2023-07-20T06:19:51;99913.00;;;16.06
71205;BMP180;58935;54.498;18.544;2023-07-20T06:22:16;99919.40;;;16.00
71205;BMP180;58935;54.498;18.544;2023-07-20T06:24:42;99911.40;;;16.02
71205;BMP180;58935;54.498;18.544;2023-07-20T06:27:07;99913.00;;;16.00
71205;BMP180;58935;54.498;18.544;2023-07-20T06:29:32;99911.40;;;16.00
71205;BMP180;58935;54.498;18.544;2023-07-20T06:31:57;99907.40;;;16.00
71205;BMP180;58935;54.498;18.544;2023-07-20T06:34:23;99898.80;;;16.00
71205;BMP180;58935;54.498;18.544;2023-07-20T06:36:48;99887.40;;;16.04
71205;BMP180;58935;54.498;18.544;2023-07-20T06:39:13;99891.80;;;16.00
71205;BMP180;58935;54.498;18.544;2023-07-20T06:41:39;99893.40;;;16.00
71205;BMP180;58935;54.498;18.544;2023-07-20T06:44:04;99899.60;;;16.00
71205;BMP180;58935;54.498;18.544;2023-07-20T06:46:30;99896.80;;;16.00
71205;BMP180;58935;54.498;18.544;2023-07-20T06:48:55;99902.80;;;16.10
71205;BMP180;58935;54.498;18.544;2023-07-20T06:51:22;99900.80;;;16.10
71205;BMP180;58935;54.498;18.544;2023-07-20T06:53:47;99899.80;;;16.10
71205;BMP180;58935;54.498;18.544;2023-07-20T06:56:12;99906.00;;;16.10
71205;BMP180;58935;54.498;18.544;2023-07-20T06:58:38;99900.20;;;16.10
71205;BMP180;58935;54.498;18.544;2023-07-20T07:01:08;99901.40;;;16.10
71205;BMP180;58935;54.498;18.544;2023-07-20T07:03:33;99899.60;;;16.10
71205;BMP180;58935;54.498;18.544;2023-07-20T07:05:59;99896.80;;;16.10
71205;BMP180;58935;54.498;18.544;2023-07-20T07:08:25;99899.80;;;16.00
71205;BMP180;58935;54.498;18.544;2023-07-20T07:10:51;99893.60;;;15.92
71205;BMP180;58935;54.498;18.544;2023-07-20T07:13:17;99892.40;;;15.90
71205;BMP180;58935;54.498;18.544;2023-07-20T07:15:42;99894.20;;;15.80
71205;BMP180;58935;54.498;18.544;2023-07-20T07:18:08;99896.20;;;15.80
71205;BMP180;58935;54.498;18.544;2023-07-20T07:20:33;99893.60;;;15.70
71205;BMP180;58935;54.498;18.544;2023-07-20T07:22:58;99894.20;;;15.70
71205;BMP180;58935;54.498;18.544;2023-07-20T07:25:24;99890.60;;;15.60
71205;BMP180;58935;54.498;18.544;2023-07-20T07:27:49;99892.40;;;15.60
71205;BMP180;58935;54.498;18.544;2023-07-20T07:33:56;99890.80;;;15.50
71205;BMP180;58935;54.498;18.544;2023-07-20T07:36:22;99889.60;;;15.50
71205;BMP180;58935;54.498;18.544;2023-07-20T07:38:49;99889.00;;;15.50
71205;BMP180;58935;54.498;18.544;2023-07-20T07:41:15;99889.20;;;15.60
71205;BMP180;58935;54.498;18.544;2023-07-20T07:43:40;99893.60;;;15.70
71205;BMP180;58935;54.498;18.544;2023-07-20T07:46:06;99886.80;;;15.80
71205;BMP180;58935;54.498;18.544;2023-07-20T07:48:31;99890.40;;;15.88
71205;BMP180;58935;54.498;18.544;2023-07-20T07:50:56;99895.80;;;16.00
71205;BMP180;58935;54.498;18.544;2023-07-20T07:53:22;99890.40;;;16.10
71205;BMP180;58935;54.498;18.544;2023-07-20T07:55:48;99890.40;;;16.20
71205;BMP180;58935;54.498;18.544;2023-07-20T07:58:13;99895.00;;;16.30
71205;BMP180;58935;54.498;18.544;2023-07-20T08:00:39;99897.60;;;16.40
71205;BMP180;58935;54.498;18.544;2023-07-20T08:03:06;99894.40;;;16.48
71205;BMP180;58935;54.498;18.544;2023-07-20T08:05:33;99899.60;;;16.50
71205;BMP180;58935;54.498;18.544;2023-07-20T08:08:00;99902.80;;;16.60
71205;BMP180;58935;54.498;18.544;2023-07-20T08:10:25;99898.20;;;16.66
71205;BMP180;58935;54.498;18.544;2023-07-20T08:12:51;99902.60;;;16.74
71205;BMP180;58935;54.498;18.544;2023-07-20T08:15:16;99899.00;;;16.90
71205;BMP180;58935;54.498;18.544;2023-07-20T08:17:42;99892.80;;;16.98
71205;BMP180;58935;54.498;18.544;2023-07-20T08:20:10;99906.20;;;17.10
71205;BMP180;58935;54.498;18.544;2023-07-20T08:22:37;99905.80;;;17.30
71205;BMP180;58935;54.498;18.544;2023-07-20T08:25:05;99909.40;;;17.40
71205;BMP180;58935;54.498;18.544;2023-07-20T08:27:31;99907.80;;;17.60
71205;BMP180;58935;54.498;18.544;2023-07-20T08:29:56;99910.60;;;17.70
71205;BMP180;58935;54.498;18.544;2023-07-20T08:32:22;99907.00;;;17.80
71205;BMP180;58935;54.498;18.544;2023-07-20T08:34:47;99902.00;;;17.80
71205;BMP180;58935;54.498;18.544;2023-07-20T08:37:12;99905.40;;;17.80
71205;BMP180;58935;54.498;18.544;2023-07-20T08:39:38;99903.80;;;17.80
71205;BMP180;58935;54.498;18.544;2023-07-20T08:42:04;99908.40;;;17.80
71205;BMP180;58935;54.498;18.544;2023-07-20T08:44:36;99908.40;;;17.74
71205;BMP180;58935;54.498;18.544;2023-07-20T08:47:02;99909.00;;;17.80
71205;BMP180;58935;54.498;18.544;2023-07-20T08:49:31;99908.40;;;17.82
71205;BMP180;58935;54.498;18.544;2023-07-20T08:51:58;99906.00;;;17.90
71205;BMP180;58935;54.498;18.544;2023-07-20T08:54:30;99905.60;;;18.00
71205;BMP180;58935;54.498;18.544;2023-07-20T08:57:01;99908.00;;;18.12
71205;BMP180;58935;54.498;18.544;2023-07-20T08:59:28;99903.40;;;18.20
71205;BMP180;58935;54.498;18.544;2023-07-20T09:01:56;99909.40;;;18.30
71205;BMP180;58935;54.498;18.544;2023-07-20T09:04:22;99910.00;;;18.46
71205;BMP180;58935;54.498;18.544;2023-07-20T09:06:49;99908.80;;;18.60
71205;BMP180;58935;54.498;18.544;2023-07-20T09:09:15;99912.00;;;18.60
71205;BMP180;58935;54.498;18.544;2023-07-20T09:11:40;99904.60;;;18.60
71205;BMP180;58935;54.498;18.544;2023-07-20T09:14:08;99910.80;;;18.60
71205;BMP180;58935;54.498;18.544;2023-07-20T09:16:53;99907.60;;;18.62
71205;BMP180;58935;54.498;18.544;2023-07-20T09:19:20;99902.40;;;18.70
71205;BMP180;58935;54.498;18.544;2023-07-20T09:21:48;99899.60;;;18.80
71205;BMP180;58935;54.498;18.544;2023-07-20T09:24:14;99898.60;;;18.90
71205;BMP180;58935;54.498;18.544;2023-07-20T09:26:42;99901.80;;;19.00
71205;BMP180;58935;54.498;18.544;2023-07-20T09:29:08;99906.20;;;19.18
71205;BMP180;58935;54.498;18.544;2023-07-20T09:31:35;99896.80;;;19.30
71205;BMP180;58935;54.498;18.544;2023-07-20T09:34:00;99896.00;;;19.40
71205;BMP180;58935;54.498;18.544;2023-07-20T09:36:29;99897.80;;;19.50
71205;BMP180;58935;54.498;18.544;2023-07-20T09:38:54;99887.40;;;19.60
71205;BMP180;58935;54.498;18.544;2023-07-20T09:41:21;99884.60;;;19.70
71205;BMP180;58935;54.498;18.544;2023-07-20T09:43:47;99887.60;;;19.80
71205;BMP180;58935;54.498;18.544;2023-07-20T09:46:13;99884.40;;;19.80
71205;BMP180;58935;54.498;18.544;2023-07-20T09:48:39;99886.40;;;19.80
71205;BMP180;58935;54.498;18.544;2023-07-20T09:51:06;99882.20;;;19.70
71205;BMP180;58935;54.498;18.544;2023-07-20T09:53:33;99882.80;;;19.66
71205;BMP180;58935;54.498;18.544;2023-07-20T09:56:00;99873.00;;;19.60
71205;BMP180;58935;54.498;18.544;2023-07-20T09:58:26;99876.40;;;19.60
71205;BMP180;58935;54.498;18.544;2023-07-20T10:00:56;99872.60;;;19.70
71205;BMP180;58935;54.498;18.544;2023-07-20T10:03:28;99872.00;;;19.80
71205;BMP180;58935;54.498;18.544;2023-07-20T10:06:05;99875.40;;;19.92
71205;BMP180;58935;54.498;18.544;2023-07-20T10:08:35;99870.80;;;20.02
71205;BMP180;58935;54.498;18.544;2023-07-20T10:11:04;99871.80;;;20.10
71205;BMP180;58935;54.498;18.544;2023-07-20T10:13:32;99874.00;;;20.00
71205;BMP180;58935;54.498;18.544;2023-07-20T10:16:03;99869.00;;;20.02
71205;BMP180;58935;54.498;18.544;2023-07-20T10:18:50;99867.20;;;20.16
71205;BMP180;58935;54.498;18.544;2023-07-20T10:21:19;99861.40;;;20.30
71205;BMP180;58935;54.498;18.544;2023-07-20T10:23:45;99869.00;;;20.40
71205;BMP180;58935;54.498;18.544;2023-07-20T10:26:11;99868.80;;;20.48
71205;BMP180;58935;54.498;18.544;2023-07-20T10:28:38;99862.60;;;20.50
71205;BMP180;58935;54.498;18.544;2023-07-20T10:31:03;99868.60;;;20.50
71205;BMP180;58935;54.498;18.544;2023-07-20T10:33:29;99870.60;;;20.60
71205;BMP180;58935;54.498;18.544;2023-07-20T10:36:04;99870.60;;;20.58
71205;BMP180;58935;54.498;18.544;2023-07-20T10:38:52;99878.20;;;20.60
71205;BMP180;58935;54.498;18.544;2023-07-20T10:41:22;99868.80;;;20.76
71205;BMP180;58935;54.498;18.544;2023-07-20T10:43:50;99883.80;;;20.70
71205;BMP180;58935;54.498;18.544;2023-07-20T10:49:13;99870.20;;;20.58
71205;BMP180;58935;54.498;18.544;2023-07-20T10:51:46;99888.40;;;20.40
71205;BMP180;58935;54.498;18.544;2023-07-20T10:54:34;99895.60;;;20.30
71205;BMP180;58935;54.498;18.544;2023-07-20T10:57:31;99901.20;;;20.18
71205;BMP180;58935;54.498;18.544;2023-07-20T11:00:12;99918.40;;;19.92
71205;BMP180;58935;54.498;18.544;2023-07-20T11:02:44;99925.80;;;19.70
71205;BMP180;58935;54.498;18.544;2023-07-20T11:05:35;99927.60;;;19.40
71205;BMP180;58935;54.498;18.544;2023-07-20T11:08:03;99927.80;;;19.12
71205;BMP180;58935;54.498;18.544;2023-07-20T11:10:29;99931.20;;;18.90
71205;BMP180;58935;54.498;18.544;2023-07-20T11:13:22;99934.60;;;18.80
71205;BMP180;58935;54.498;18.544;2023-07-20T11:16:02;99946.80;;;18.70
71205;BMP180;58935;54.498;18.544;2023-07-20T11:18:29;99946.00;;;18.60
71205;BMP180;58935;54.498;18.544;2023-07-20T11:20:56;99949.80;;;18.50
71205;BMP180;58935;54.498;18.544;2023-07-20T11:23:22;99943.00;;;18.40
71205;BMP180;58935;54.498;18.544;2023-07-20T11:25:50;99943.40;;;18.30
71205;BMP180;58935;54.498;18.544;2023-07-20T11:28:16;99946.40;;;18.30
71205;BMP180;58935;54.498;18.544;2023-07-20T11:30:41;99950.20;;;18.20
71205;BMP180;58935;54.498;18.544;2023-07-20T11:33:34;99952.80;;;18.20
71205;BMP180;58935;54.498;18.544;2023-07-20T11:36:00;99947.40;;;18.20
71205;BMP180;58935;54.498;18.544;2023-07-20T11:38:25;99946.40;;;18.30
71205;BMP180;58935;54.498;18.544;2023-07-20T11:40:50;99947.20;;;18.30
71205;BMP180;58935;54.498;18.544;2023-07-20T11:43:16;99945.20;;;18.36
71205;BMP180;58935;54.498;18.544;2023-07-20T11:45:41;99948.00;;;18.48
71205;BMP180;58935;54.498;18.544;2023-07-20T11:48:07;99949.20;;;18.60
71205;BMP180;58935;54.498;18.544;2023-07-20T11:50:39;99945.60;;;18.70
71205;BMP180;58935;54.498;18.544;2023-07-20T11:53:05;99948.60;;;18.80
71205;BMP180;58935;54.498;18.544;2023-07-20T11:55:31;99945.80;;;18.80
71205;BMP180;58935;54.498;18.544;2023-07-20T11:58:04;99946.60;;;18.90
71205;BMP180;58935;54.498;18.544;2023-07-20T12:00:34;99949.00;;;19.00
71205;BMP180;58935;54.498;18.544;2023-07-20T12:03:00;99941.40;;;19.20
71205;BMP180;58935;54.498;18.544;2023-07-20T12:05:26;99938.80;;;19.42
71205;BMP180;58935;54.498;18.544;2023-07-20T12:07:52;99939.20;;;19.60
71205;BMP180;58935;54.498;18.544;2023-07-20T12:10:26;99936.80;;;19.70
71205;BMP180;58935;54.498;18.544;2023-07-20T12:12:52;99936.40;;;19.80
71205;BMP180;58935;54.498;18.544;2023-07-20T12:15:24;99940.40;;;19.80
71205;BMP180;58935;54.498;18.544;2023-07-20T12:17:58;99933.00;;;19.70
71205;BMP180;58935;54.498;18.544;2023-07-20T12:20:30;99934.20;;;19.70
71205;BMP180;58935;54.498;18.544;2023-07-20T12:23:00;99932.40;;;19.70
71205;BMP180;58935;54.498;18.544;2023-07-20T12:25:39;99928.00;;;19.62
71205;BMP180;58935;54.498;18.544;2023-07-20T12:28:08;99930.60;;;19.70
71205;BMP180;58935;54.498;18.544;2023-07-20T12:30:34;99930.40;;;19.72
71205;BMP180;58935;54.498;18.544;2023-07-20T12:32:59;99919.00;;;19.74
71205;BMP180;58935;54.498;18.544;2023-07-20T12:35:25;99914.00;;;19.70
71205;BMP180;58935;54.498;18.544;2023-07-20T12:37:50;99917.60;;;19.70
71205;BMP180;58935;54.498;18.544;2023-07-20T12:40:17;99907.40;;;19.78
71205;BMP180;58935;54.498;18.544;2023-07-20T12:42:42;99909.20;;;19.80
71205;BMP180;58935;54.498;18.544;2023-07-20T12:45:08;99903.20;;;19.82
71205;BMP180;58935;54.498;18.544;2023-07-20T12:47:34;99901.80;;;19.90
71205;BMP180;58935;54.498;18.544;2023-07-20T12:49:59;99896.40;;;20.04
71205;BMP180;58935;54.498;18.544;2023-07-20T12:52:25;99897.00;;;20.20
71205;BMP180;58935;54.498;18.544;2023-07-20T12:54:50;99898.20;;;20.40
71205;BMP180;58935;54.498;18.544;2023-07-20T12:57:16;99907.60;;;20.58
71205;BMP180;58935;54.498;18.544;2023-07-20T12:59:42;99902.00;;;20.78
71205;BMP180;58935;54.498;18.544;2023-07-20T13:02:07;99902.20;;;21.00
71205;BMP180;58935;54.498;18.544;2023-07-20T13:04:32;99898.20;;;21.20
71205;BMP180;58935;54.498;18.544;2023-07-20T13:06:58;99898.40;;;21.30
71205;BMP180;58935;54.498;18.544;2023-07-20T13:09:24;99901.80;;;21.40
71205;BMP180;58935;54.498;18.544;2023-07-20T13:11:50;99901.40;;;21.16
71205;BMP180;58935;54.498;18.544;2023-07-20T13:14:16;99903.20;;;20.90
71205;BMP180;58935;54.498;18.544;2023-07-20T13:16:41;99896.40;;;20.72
71205;BMP180;58935;54.498;18.544;2023-07-20T13:19:07;99901.80;;;20.60
71205;BMP180;58935;54.498;18.544;2023-07-20T13:21:32;99889.80;;;20.24
71205;BMP180;58935;54.498;18.544;2023-07-20T13:23:58;99883.40;;;19.90
71205;BMP180;58935;54.498;18.544;2023-07-20T13:26:23;99888.60;;;19.58
71205;BMP180;58935;54.498;18.544;2023-07-20T13:28:49;99885.00;;;19.30
71205;BMP180;58935;54.498;18.544;2023-07-20T13:31:15;99893.20;;;19.20
71205;BMP180;58935;54.498;18.544;2023-07-20T13:33:42;99992.60;;;18.74
71205;BMP180;58935;54.498;18.544;2023-07-20T13:36:07;99981.20;;;16.84
71205;BMP180;58935;54.498;18.544;2023-07-20T13:38:33;99997.60;;;15.82
71205;BMP180;58935;54.498;18.544;2023-07-20T13:40:58;99980.40;;;15.20
71205;BMP180;58935;54.498;18.544;2023-07-20T13:43:23;99972.40;;;15.00
71205;BMP180;58935;54.498;18.544;2023-07-20T13:45:49;99975.60;;;14.88
71205;BMP180;58935;54.498;18.544;2023-07-20T13:48:14;99972.60;;;14.90
71205;BMP180;58935;54.498;18.544;2023-07-20T13:50:40;99965.40;;;15.10
71205;BMP180;58935;54.498;18.544;2023-07-20T13:53:05;99966.00;;;15.30
71205;BMP180;58935;54.498;18.544;2023-07-20T13:55:31;99973.20;;;15.52
71205;BMP180;58935;54.498;18.544;2023-07-20T13:57:59;99969.00;;;15.70
71205;BMP180;58935;54.498;18.544;2023-07-20T14:00:24;99967.40;;;15.80
71205;BMP180;58935;54.498;18.544;2023-07-20T14:02:52;99969.60;;;16.00
71205;BMP180;58935;54.498;18.544;2023-07-20T14:05:18;99963.00;;;16.18
71205;BMP180;58935;54.498;18.544;2023-07-20T14:07:44;99960.00;;;16.30
71205;BMP180;58935;54.498;18.544;2023-07-20T14:10:09;99954.80;;;16.56
71205;BMP180;58935;54.498;18.544;2023-07-20T14:12:35;99959.00;;;16.80
71205;BMP180;58935;54.498;18.544;2023-07-20T14:15:00;99953.40;;;17.00